Saint Pauls, North Carolina
Current Conditions -  °F | °C
As of 8:53 AM on Thursday 18 Dec 2014 (Local Time) from KFAY Reporting Station
Clear Clear  
Wind Chill: 39°   Ceiling: Unl
Heat Index: 43°   Visibility: 8mi
Dew Point: 33°   Wind: 7mph
Humidity: 68%   Direction: 20°NNE
Pressure: 30.18"   Gusts: NA
Location:  34.81°N, 78.97°W
Report Text: KFAY 181353Z AUTO 02006KT 8SM CLR 06/01 A3018 RMK AO2 SLP216 T00610006
Loading
Personal Weather Stations






























Interactive Weather Map New forecast layout! Learn more

10-Day Weather Forecast

Advertisements
Track Severe Weather on mobile